sensor_id;sensor_type;location;lat;lon;timestamp;temperature;humidity
66708;DHT22;53622;0.000;0.000;2022-09-03T00:01:34;21.90;97.90
66708;DHT22;53622;0.000;0.000;2022-09-03T00:04:11;21.90;97.70
66708;DHT22;53622;0.000;0.000;2022-09-03T00:07:00;21.90;97.50
66708;DHT22;53622;0.000;0.000;2022-09-03T00:09:33;21.90;97.50
66708;DHT22;53622;0.000;0.000;2022-09-03T00:12:10;21.80;97.50
66708;DHT22;53622;0.000;0.000;2022-09-03T00:14:43;21.80;97.40
66708;DHT22;53622;0.000;0.000;2022-09-03T00:17:18;21.80;97.50
66708;DHT22;53622;0.000;0.000;2022-09-03T00:19:55;21.80;97.50
66708;DHT22;53622;0.000;0.000;2022-09-03T00:22:28;21.80;97.40
66708;DHT22;53622;0.000;0.000;2022-09-03T00:25:02;21.70;97.60
66708;DHT22;53622;0.000;0.000;2022-09-03T00:27:39;21.70;97.60
66708;DHT22;53622;0.000;0.000;2022-09-03T00:30:11;21.70;97.60
66708;DHT22;53622;0.000;0.000;2022-09-03T00:32:46;21.70;97.60
66708;DHT22;53622;0.000;0.000;2022-09-03T00:35:22;21.70;97.40
66708;DHT22;53622;0.000;0.000;2022-09-03T00:37:53;21.70;97.60
66708;DHT22;53622;0.000;0.000;2022-09-03T00:40:35;21.70;97.70
66708;DHT22;53622;0.000;0.000;2022-09-03T00:43:14;21.70;97.50
66708;DHT22;53622;0.000;0.000;2022-09-03T00:45:54;21.80;97.50
66708;DHT22;53622;0.000;0.000;2022-09-03T00:48:29;21.80;97.30
66708;DHT22;53622;0.000;0.000;2022-09-03T00:51:10;21.80;97.20
66708;DHT22;53622;0.000;0.000;2022-09-03T00:53:49;21.80;97.20
66708;DHT22;53622;0.000;0.000;2022-09-03T00:56:30;21.70;97.40
66708;DHT22;53622;0.000;0.000;2022-09-03T00:59:24;21.70;97.40
66708;DHT22;53622;0.000;0.000;2022-09-03T01:02:06;21.70;97.40
66708;DHT22;53622;0.000;0.000;2022-09-03T01:04:51;21.70;97.50
66708;DHT22;53622;0.000;0.000;2022-09-03T01:07:34;21.70;97.80
66708;DHT22;53622;0.000;0.000;2022-09-03T01:10:15;21.70;98.00
66708;DHT22;53622;0.000;0.000;2022-09-03T01:12:53;21.60;98.20
66708;DHT22;53622;0.000;0.000;2022-09-03T01:15:31;21.60;98.40
66708;DHT22;53622;0.000;0.000;2022-09-03T01:18:14;21.60;98.70
66708;DHT22;53622;0.000;0.000;2022-09-03T01:20:53;21.60;98.70
66708;DHT22;53622;0.000;0.000;2022-09-03T01:27:01;21.70;98.40
66708;DHT22;53622;0.000;0.000;2022-09-03T01:29:43;21.70;98.20
66708;DHT22;53622;0.000;0.000;2022-09-03T01:32:21;21.70;97.90
66708;DHT22;53622;0.000;0.000;2022-09-03T01:35:00;21.70;97.90
66708;DHT22;53622;0.000;0.000;2022-09-03T01:37:38;21.70;98.20
66708;DHT22;53622;0.000;0.000;2022-09-03T01:40:16;21.70;97.80
66708;DHT22;53622;0.000;0.000;2022-09-03T01:43:00;21.70;97.80
66708;DHT22;53622;0.000;0.000;2022-09-03T01:45:50;21.70;97.80
66708;DHT22;53622;0.000;0.000;2022-09-03T01:48:43;21.70;97.80
66708;DHT22;53622;0.000;0.000;2022-09-03T01:51:19;21.70;97.80
66708;DHT22;53622;0.000;0.000;2022-09-03T01:54:05;21.60;97.80
66708;DHT22;53622;0.000;0.000;2022-09-03T01:57:19;21.70;97.80
66708;DHT22;53622;0.000;0.000;2022-09-03T02:00:07;21.60;97.70
66708;DHT22;53622;0.000;0.000;2022-09-03T02:02:42;21.70;97.90
66708;DHT22;53622;0.000;0.000;2022-09-03T02:05:16;21.70;98.00
66708;DHT22;53622;0.000;0.000;2022-09-03T02:07:48;21.60;98.00
66708;DHT22;53622;0.000;0.000;2022-09-03T02:10:22;21.60;98.00
66708;DHT22;53622;0.000;0.000;2022-09-03T02:12:56;21.60;98.00
66708;DHT22;53622;0.000;0.000;2022-09-03T02:15:27;21.60;97.90
66708;DHT22;53622;0.000;0.000;2022-09-03T02:18:01;21.70;97.90
66708;DHT22;53622;0.000;0.000;2022-09-03T02:20:31;21.60;97.90
66708;DHT22;53622;0.000;0.000;2022-09-03T02:23:01;21.60;98.00
66708;DHT22;53622;0.000;0.000;2022-09-03T02:25:35;21.50;98.00
66708;DHT22;53622;0.000;0.000;2022-09-03T02:28:05;21.50;98.00
66708;DHT22;53622;0.000;0.000;2022-09-03T02:30:44;21.50;98.00
66708;DHT22;53622;0.000;0.000;2022-09-03T02:33:16;21.50;97.90
66708;DHT22;53622;0.000;0.000;2022-09-03T02:35:45;21.50;98.00
66708;DHT22;53622;0.000;0.000;2022-09-03T02:38:17;21.50;97.90
66708;DHT22;53622;0.000;0.000;2022-09-03T02:40:47;21.40;97.80
66708;DHT22;53622;0.000;0.000;2022-09-03T02:43:19;21.40;97.70
66708;DHT22;53622;0.000;0.000;2022-09-03T02:45:56;21.40;97.80
66708;DHT22;53622;0.000;0.000;2022-09-03T02:48:29;21.40;97.90
66708;DHT22;53622;0.000;0.000;2022-09-03T02:50:58;21.40;97.80
66708;DHT22;53622;0.000;0.000;2022-09-03T02:53:40;21.30;97.90
66708;DHT22;53622;0.000;0.000;2022-09-03T02:56:10;21.30;98.10
66708;DHT22;53622;0.000;0.000;2022-09-03T02:58:40;21.20;98.40
66708;DHT22;53622;0.000;0.000;2022-09-03T03:01:09;21.20;98.50
66708;DHT22;53622;0.000;0.000;2022-09-03T03:03:52;21.20;98.70
66708;DHT22;53622;0.000;0.000;2022-09-03T03:06:21;21.20;98.60
66708;DHT22;53622;0.000;0.000;2022-09-03T03:08:51;21.20;98.50
66708;DHT22;53622;0.000;0.000;2022-09-03T03:11:22;21.20;98.70
66708;DHT22;53622;0.000;0.000;2022-09-03T03:13:53;21.20;98.90
66708;DHT22;53622;0.000;0.000;2022-09-03T03:16:22;21.20;98.90
66708;DHT22;53622;0.000;0.000;2022-09-03T03:18:55;21.20;98.70
66708;DHT22;53622;0.000;0.000;2022-09-03T03:21:24;21.30;98.60
66708;DHT22;53622;0.000;0.000;2022-09-03T03:23:53;21.30;98.50
66708;DHT22;53622;0.000;0.000;2022-09-03T03:26:22;21.20;98.30
66708;DHT22;53622;0.000;0.000;2022-09-03T03:28:56;21.20;98.40
66708;DHT22;53622;0.000;0.000;2022-09-03T03:31:26;21.20;98.50
66708;DHT22;53622;0.000;0.000;2022-09-03T03:33:58;21.20;98.40
66708;DHT22;53622;0.000;0.000;2022-09-03T03:36:29;21.20;98.20
66708;DHT22;53622;0.000;0.000;2022-09-03T03:39:00;21.20;98.10
66708;DHT22;53622;0.000;0.000;2022-09-03T03:41:32;21.20;98.00
66708;DHT22;53622;0.000;0.000;2022-09-03T03:44:04;21.20;97.80
66708;DHT22;53622;0.000;0.000;2022-09-03T03:46:35;21.10;98.00
66708;DHT22;53622;0.000;0.000;2022-09-03T03:49:07;21.10;98.00
66708;DHT22;53622;0.000;0.000;2022-09-03T03:51:37;21.10;98.10
66708;DHT22;53622;0.000;0.000;2022-09-03T03:54:07;21.10;98.10
66708;DHT22;53622;0.000;0.000;2022-09-03T03:56:39;21.10;97.90
66708;DHT22;53622;0.000;0.000;2022-09-03T03:59:08;21.10;97.90
66708;DHT22;53622;0.000;0.000;2022-09-03T04:01:38;21.00;98.00
66708;DHT22;53622;0.000;0.000;2022-09-03T04:04:08;21.10;97.90
66708;DHT22;53622;0.000;0.000;2022-09-03T04:06:38;21.00;97.90
66708;DHT22;53622;0.000;0.000;2022-09-03T04:09:07;21.00;97.90
66708;DHT22;53622;0.000;0.000;2022-09-03T04:11:36;21.10;97.80
66708;DHT22;53622;0.000;0.000;2022-09-03T04:14:05;21.10;97.70
66708;DHT22;53622;0.000;0.000;2022-09-03T04:16:34;21.10;97.50
66708;DHT22;53622;0.000;0.000;2022-09-03T04:19:04;21.10;97.50
66708;DHT22;53622;0.000;0.000;2022-09-03T04:21:34;21.10;97.40
66708;DHT22;53622;0.000;0.000;2022-09-03T04:24:04;21.20;97.30
66708;DHT22;53622;0.000;0.000;2022-09-03T04:26:34;21.10;97.30
66708;DHT22;53622;0.000;0.000;2022-09-03T04:29:05;21.10;97.40
66708;DHT22;53622;0.000;0.000;2022-09-03T04:31:36;21.10;97.40
66708;DHT22;53622;0.000;0.000;2022-09-03T04:34:06;21.10;97.40
66708;DHT22;53622;0.000;0.000;2022-09-03T04:36:37;21.10;97.40
66708;DHT22;53622;0.000;0.000;2022-09-03T04:39:06;21.20;97.30
66708;DHT22;53622;0.000;0.000;2022-09-03T04:41:36;21.20;97.30
66708;DHT22;53622;0.000;0.000;2022-09-03T04:44:05;21.20;97.30
66708;DHT22;53622;0.000;0.000;2022-09-03T04:46:34;21.10;97.40
66708;DHT22;53622;0.000;0.000;2022-09-03T04:49:03;21.00;97.60
66708;DHT22;53622;0.000;0.000;2022-09-03T04:51:34;21.00;97.70
66708;DHT22;53622;0.000;0.000;2022-09-03T04:54:07;21.00;97.70
66708;DHT22;53622;0.000;0.000;2022-09-03T04:56:38;21.00;97.70
66708;DHT22;53622;0.000;0.000;2022-09-03T04:59:08;21.00;97.70
66708;DHT22;53622;0.000;0.000;2022-09-03T05:01:38;21.00;97.60
66708;DHT22;53622;0.000;0.000;2022-09-03T05:04:08;21.00;97.40
66708;DHT22;53622;0.000;0.000;2022-09-03T05:06:37;21.10;97.20
66708;DHT22;53622;0.000;0.000;2022-09-03T05:09:08;21.10;97.10
66708;DHT22;53622;0.000;0.000;2022-09-03T05:11:37;21.10;97.10
66708;DHT22;53622;0.000;0.000;2022-09-03T05:14:06;21.10;97.10
66708;DHT22;53622;0.000;0.000;2022-09-03T05:16:38;21.10;97.00
66708;DHT22;53622;0.000;0.000;2022-09-03T05:19:08;21.20;96.70
66708;DHT22;53622;0.000;0.000;2022-09-03T05:21:37;21.30;96.50
66708;DHT22;53622;0.000;0.000;2022-09-03T05:24:08;21.30;96.40
66708;DHT22;53622;0.000;0.000;2022-09-03T05:26:38;21.40;96.30
66708;DHT22;53622;0.000;0.000;2022-09-03T05:29:08;21.40;96.10
66708;DHT22;53622;0.000;0.000;2022-09-03T05:31:38;21.40;96.10
66708;DHT22;53622;0.000;0.000;2022-09-03T05:34:07;21.40;95.90
66708;DHT22;53622;0.000;0.000;2022-09-03T05:36:45;21.50;95.90
66708;DHT22;53622;0.000;0.000;2022-09-03T05:39:17;21.50;95.80
66708;DHT22;53622;0.000;0.000;2022-09-03T05:41:47;21.60;95.60
66708;DHT22;53622;0.000;0.000;2022-09-03T05:44:17;21.60;95.60
66708;DHT22;53622;0.000;0.000;2022-09-03T05:46:48;21.50;95.70
66708;DHT22;53622;0.000;0.000;2022-09-03T05:49:18;21.50;95.60
66708;DHT22;53622;0.000;0.000;2022-09-03T05:51:47;21.60;95.60
66708;DHT22;53622;0.000;0.000;2022-09-03T05:54:17;21.60;95.50
66708;DHT22;53622;0.000;0.000;2022-09-03T05:56:47;21.60;95.40
66708;DHT22;53622;0.000;0.000;2022-09-03T05:59:16;21.60;95.50
66708;DHT22;53622;0.000;0.000;2022-09-03T06:01:46;21.60;95.40
66708;DHT22;53622;0.000;0.000;2022-09-03T06:04:19;21.70;95.50
66708;DHT22;53622;0.000;0.000;2022-09-03T06:06:48;21.60;95.40
66708;DHT22;53622;0.000;0.000;2022-09-03T06:09:20;21.70;95.40
66708;DHT22;53622;0.000;0.000;2022-09-03T06:11:51;21.70;95.60
66708;DHT22;53622;0.000;0.000;2022-09-03T06:14:23;21.70;95.60
66708;DHT22;53622;0.000;0.000;2022-09-03T06:16:53;21.60;95.70
66708;DHT22;53622;0.000;0.000;2022-09-03T06:19:23;21.60;95.70
66708;DHT22;53622;0.000;0.000;2022-09-03T06:21:53;21.60;95.50
66708;DHT22;53622;0.000;0.000;2022-09-03T06:24:23;21.60;95.70
66708;DHT22;53622;0.000;0.000;2022-09-03T06:26:55;21.50;95.60
66708;DHT22;53622;0.000;0.000;2022-09-03T06:29:24;21.50;95.80
66708;DHT22;53622;0.000;0.000;2022-09-03T06:31:54;21.50;96.00
66708;DHT22;53622;0.000;0.000;2022-09-03T06:34:24;21.50;96.10
66708;DHT22;53622;0.000;0.000;2022-09-03T06:36:53;21.40;96.10
66708;DHT22;53622;0.000;0.000;2022-09-03T06:39:24;21.50;98.80
66708;DHT22;53622;0.000;0.000;2022-09-03T06:41:54;21.40;99.50
66708;DHT22;53622;0.000;0.000;2022-09-03T06:44:34;21.50;99.50
66708;DHT22;53622;0.000;0.000;2022-09-03T06:47:12;21.50;99.10
66708;DHT22;53622;0.000;0.000;2022-09-03T06:50:04;21.80;99.40
66708;DHT22;53622;0.000;0.000;2022-09-03T06:52:33;21.70;99.90
66708;DHT22;53622;0.000;0.000;2022-09-03T06:55:05;21.50;99.90
66708;DHT22;53622;0.000;0.000;2022-09-03T06:57:34;21.50;99.90
66708;DHT22;53622;0.000;0.000;2022-09-03T07:00:05;21.50;96.40
66708;DHT22;53622;0.000;0.000;2022-09-03T07:02:34;21.50;96.70
66708;DHT22;53622;0.000;0.000;2022-09-03T07:05:09;21.60;96.70
66708;DHT22;53622;0.000;0.000;2022-09-03T07:07:38;21.60;96.80
66708;DHT22;53622;0.000;0.000;2022-09-03T07:10:09;21.60;97.10
66708;DHT22;53622;0.000;0.000;2022-09-03T07:12:41;21.60;97.40
66708;DHT22;53622;0.000;0.000;2022-09-03T07:15:10;21.60;97.50
66708;DHT22;53622;0.000;0.000;2022-09-03T07:17:40;21.60;97.40
66708;DHT22;53622;0.000;0.000;2022-09-03T07:20:09;21.70;97.50
66708;DHT22;53622;0.000;0.000;2022-09-03T07:22:38;21.70;97.60
66708;DHT22;53622;0.000;0.000;2022-09-03T07:25:09;21.70;97.70
66708;DHT22;53622;0.000;0.000;2022-09-03T07:27:39;21.70;98.10
66708;DHT22;53622;0.000;0.000;2022-09-03T07:30:09;21.70;98.20
66708;DHT22;53622;0.000;0.000;2022-09-03T07:32:39;21.70;98.00
66708;DHT22;53622;0.000;0.000;2022-09-03T07:35:08;21.70;97.80
66708;DHT22;53622;0.000;0.000;2022-09-03T07:37:40;21.60;97.80
66708;DHT22;53622;0.000;0.000;2022-09-03T07:40:12;21.70;98.10
66708;DHT22;53622;0.000;0.000;2022-09-03T07:42:43;21.70;98.20
66708;DHT22;53622;0.000;0.000;2022-09-03T07:45:21;21.70;98.20
66708;DHT22;53622;0.000;0.000;2022-09-03T07:50:23;21.70;97.90
66708;DHT22;53622;0.000;0.000;2022-09-03T07:52:55;21.70;98.20
66708;DHT22;53622;0.000;0.000;2022-09-03T07:55:27;21.70;98.10
66708;DHT22;53622;0.000;0.000;2022-09-03T07:58:00;21.70;98.10
66708;DHT22;53622;0.000;0.000;2022-09-03T08:00:50;21.80;98.20
66708;DHT22;53622;0.000;0.000;2022-09-03T08:03:24;21.80;98.20
66708;DHT22;53622;0.000;0.000;2022-09-03T08:06:00;21.80;98.60
66708;DHT22;53622;0.000;0.000;2022-09-03T08:08:33;21.90;98.70
66708;DHT22;53622;0.000;0.000;2022-09-03T08:11:07;21.90;98.70
66708;DHT22;53622;0.000;0.000;2022-09-03T08:13:48;21.90;98.70
66708;DHT22;53622;0.000;0.000;2022-09-03T08:16:28;21.90;98.80
66708;DHT22;53622;0.000;0.000;2022-09-03T08:19:27;22.00;98.80
66708;DHT22;53622;0.000;0.000;2022-09-03T08:21:56;22.00;98.60
66708;DHT22;53622;0.000;0.000;2022-09-03T08:24:25;22.00;98.50
66708;DHT22;53622;0.000;0.000;2022-09-03T08:26:56;22.00;98.50
66708;DHT22;53622;0.000;0.000;2022-09-03T08:29:26;22.00;98.40
66708;DHT22;53622;0.000;0.000;2022-09-03T08:31:55;22.10;98.30
66708;DHT22;53622;0.000;0.000;2022-09-03T08:34:26;22.10;98.20
66708;DHT22;53622;0.000;0.000;2022-09-03T08:36:55;22.10;98.10
66708;DHT22;53622;0.000;0.000;2022-09-03T08:39:28;22.10;98.10
66708;DHT22;53622;0.000;0.000;2022-09-03T08:42:20;22.20;98.10
66708;DHT22;53622;0.000;0.000;2022-09-03T08:44:55;22.20;98.00
66708;DHT22;53622;0.000;0.000;2022-09-03T08:47:28;22.20;97.90
66708;DHT22;53622;0.000;0.000;2022-09-03T08:50:18;22.20;97.90
66708;DHT22;53622;0.000;0.000;2022-09-03T08:54:13;22.20;97.80
66708;DHT22;53622;0.000;0.000;2022-09-03T08:56:59;22.20;97.60
66708;DHT22;53622;0.000;0.000;2022-09-03T08:59:52;22.30;97.50
66708;DHT22;53622;0.000;0.000;2022-09-03T09:02:42;22.30;97.70
66708;DHT22;53622;0.000;0.000;2022-09-03T09:05:18;22.30;97.60
66708;DHT22;53622;0.000;0.000;2022-09-03T09:08:01;22.30;97.50
66708;DHT22;53622;0.000;0.000;2022-09-03T09:10:47;22.30;97.40
66708;DHT22;53622;0.000;0.000;2022-09-03T09:13:30;22.30;97.60
66708;DHT22;53622;0.000;0.000;2022-09-03T09:16:09;22.30;97.40
66708;DHT22;53622;0.000;0.000;2022-09-03T09:18:49;22.30;97.50
66708;DHT22;53622;0.000;0.000;2022-09-03T09:21:26;22.30;97.50
66708;DHT22;53622;0.000;0.000;2022-09-03T09:24:01;22.30;97.50
66708;DHT22;53622;0.000;0.000;2022-09-03T09:26:42;22.30;97.50
66708;DHT22;53622;0.000;0.000;2022-09-03T09:29:12;22.30;97.60
66708;DHT22;53622;0.000;0.000;2022-09-03T09:31:43;22.40;97.40
66708;DHT22;53622;0.000;0.000;2022-09-03T09:34:13;22.40;97.40
66708;DHT22;53622;0.000;0.000;2022-09-03T09:36:45;22.40;97.20
66708;DHT22;53622;0.000;0.000;2022-09-03T09:39:16;22.40;97.30
66708;DHT22;53622;0.000;0.000;2022-09-03T09:41:56;22.40;97.40
66708;DHT22;53622;0.000;0.000;2022-09-03T09:44:26;22.40;97.40
66708;DHT22;53622;0.000;0.000;2022-09-03T09:47:05;22.40;97.40
66708;DHT22;53622;0.000;0.000;2022-09-03T09:49:37;22.40;97.40
66708;DHT22;53622;0.000;0.000;2022-09-03T09:52:13;22.40;97.40
66708;DHT22;53622;0.000;0.000;2022-09-03T09:54:44;22.40;97.30
66708;DHT22;53622;0.000;0.000;2022-09-03T09:57:15;22.50;97.30
66708;DHT22;53622;0.000;0.000;2022-09-03T09:59:45;22.50;97.60
66708;DHT22;53622;0.000;0.000;2022-09-03T10:02:22;22.50;97.40
66708;DHT22;53622;0.000;0.000;2022-09-03T10:04:57;22.50;97.60
66708;DHT22;53622;0.000;0.000;2022-09-03T10:07:30;22.50;97.50
66708;DHT22;53622;0.000;0.000;2022-09-03T10:10:02;22.50;97.60
66708;DHT22;53622;0.000;0.000;2022-09-03T10:12:39;22.60;97.50
66708;DHT22;53622;0.000;0.000;2022-09-03T10:15:22;22.60;97.70
66708;DHT22;53622;0.000;0.000;2022-09-03T10:18:09;22.60;98.10
66708;DHT22;53622;0.000;0.000;2022-09-03T10:20:43;22.60;98.20
66708;DHT22;53622;0.000;0.000;2022-09-03T10:23:17;22.60;98.10
66708;DHT22;53622;0.000;0.000;2022-09-03T10:25:59;22.60;98.20
66708;DHT22;53622;0.000;0.000;2022-09-03T10:28:35;22.70;98.40
66708;DHT22;53622;0.000;0.000;2022-09-03T10:31:26;22.70;98.40
66708;DHT22;53622;0.000;0.000;2022-09-03T10:34:11;22.70;98.60
66708;DHT22;53622;0.000;0.000;2022-09-03T10:36:47;22.70;98.70
66708;DHT22;53622;0.000;0.000;2022-09-03T10:39:21;22.70;98.60
66708;DHT22;53622;0.000;0.000;2022-09-03T10:42:04;22.70;98.40
66708;DHT22;53622;0.000;0.000;2022-09-03T10:44:48;22.70;98.30
66708;DHT22;53622;0.000;0.000;2022-09-03T10:47:36;22.70;98.00
66708;DHT22;53622;0.000;0.000;2022-09-03T10:50:13;22.70;97.90
66708;DHT22;53622;0.000;0.000;2022-09-03T10:53:02;22.70;97.80
66708;DHT22;53622;0.000;0.000;2022-09-03T10:55:40;22.80;98.20
66708;DHT22;53622;0.000;0.000;2022-09-03T10:58:27;22.80;98.00
66708;DHT22;53622;0.000;0.000;2022-09-03T11:01:05;22.80;97.90
66708;DHT22;53622;0.000;0.000;2022-09-03T11:03:42;22.90;98.10
66708;DHT22;53622;0.000;0.000;2022-09-03T11:06:18;22.90;97.90
66708;DHT22;53622;0.000;0.000;2022-09-03T11:08:54;22.90;98.10
66708;DHT22;53622;0.000;0.000;2022-09-03T11:11:35;22.90;98.00
66708;DHT22;53622;0.000;0.000;2022-09-03T11:14:08;22.90;97.80
66708;DHT22;53622;0.000;0.000;2022-09-03T11:16:42;22.90;97.90
66708;DHT22;53622;0.000;0.000;2022-09-03T11:19:16;22.90;98.00
66708;DHT22;53622;0.000;0.000;2022-09-03T11:21:47;22.90;97.90
66708;DHT22;53622;0.000;0.000;2022-09-03T11:24:21;23.00;97.50
66708;DHT22;53622;0.000;0.000;2022-09-03T11:26:59;23.00;97.00
66708;DHT22;53622;0.000;0.000;2022-09-03T11:29:33;23.00;96.50
66708;DHT22;53622;0.000;0.000;2022-09-03T11:32:08;23.00;96.70
66708;DHT22;53622;0.000;0.000;2022-09-03T11:34:46;23.10;96.20
66708;DHT22;53622;0.000;0.000;2022-09-03T11:37:20;23.10;95.90
66708;DHT22;53622;0.000;0.000;2022-09-03T11:40:02;23.10;95.90
66708;DHT22;53622;0.000;0.000;2022-09-03T11:42:35;23.10;95.70
66708;DHT22;53622;0.000;0.000;2022-09-03T11:45:21;23.10;95.20
66708;DHT22;53622;0.000;0.000;2022-09-03T11:47:52;23.10;95.20
66708;DHT22;53622;0.000;0.000;2022-09-03T11:50:23;23.10;95.20
66708;DHT22;53622;0.000;0.000;2022-09-03T11:53:06;23.10;95.20
66708;DHT22;53622;0.000;0.000;2022-09-03T11:55:51;23.10;95.10
66708;DHT22;53622;0.000;0.000;2022-09-03T11:58:24;23.20;94.60
66708;DHT22;53622;0.000;0.000;2022-09-03T12:00:55;23.20;94.20
66708;DHT22;53622;0.000;0.000;2022-09-03T12:03:27;23.20;94.00
66708;DHT22;53622;0.000;0.000;2022-09-03T12:06:20;23.20;93.80
66708;DHT22;53622;0.000;0.000;2022-09-03T12:09:04;23.30;93.90
66708;DHT22;53622;0.000;0.000;2022-09-03T12:11:47;23.30;93.80
66708;DHT22;53622;0.000;0.000;2022-09-03T12:14:23;23.40;94.00
66708;DHT22;53622;0.000;0.000;2022-09-03T12:17:05;23.40;94.60
66708;DHT22;53622;0.000;0.000;2022-09-03T12:19:40;23.40;93.90
66708;DHT22;53622;0.000;0.000;2022-09-03T12:22:12;23.40;93.80
66708;DHT22;53622;0.000;0.000;2022-09-03T12:24:44;23.40;93.60
66708;DHT22;53622;0.000;0.000;2022-09-03T12:27:17;23.40;93.90
66708;DHT22;53622;0.000;0.000;2022-09-03T12:29:53;23.40;94.00
66708;DHT22;53622;0.000;0.000;2022-09-03T12:32:28;23.30;94.10
66708;DHT22;53622;0.000;0.000;2022-09-03T12:35:10;23.30;94.30
66708;DHT22;53622;0.000;0.000;2022-09-03T12:37:41;23.30;94.20
66708;DHT22;53622;0.000;0.000;2022-09-03T12:40:34;23.30;94.40
66708;DHT22;53622;0.000;0.000;2022-09-03T12:43:27;23.30;94.50
66708;DHT22;53622;0.000;0.000;2022-09-03T12:46:13;23.30;94.60
66708;DHT22;53622;0.000;0.000;2022-09-03T12:48:54;23.30;94.40
66708;DHT22;53622;0.000;0.000;2022-09-03T12:51:43;23.30;94.10
66708;DHT22;53622;0.000;0.000;2022-09-03T12:54:18;23.30;94.30
66708;DHT22;53622;0.000;0.000;2022-09-03T12:56:55;23.30;94.40
66708;DHT22;53622;0.000;0.000;2022-09-03T12:59:43;23.30;94.60
66708;DHT22;53622;0.000;0.000;2022-09-03T13:02:16;23.30;94.20
66708;DHT22;53622;0.000;0.000;2022-09-03T13:04:47;23.30;94.00
66708;DHT22;53622;0.000;0.000;2022-09-03T13:07:24;23.20;94.00
66708;DHT22;53622;0.000;0.000;2022-09-03T13:10:02;23.20;94.00
66708;DHT22;53622;0.000;0.000;2022-09-03T13:12:44;23.20;94.10
66708;DHT22;53622;0.000;0.000;2022-09-03T13:15:22;23.20;94.00
66708;DHT22;53622;0.000;0.000;2022-09-03T13:18:09;23.20;94.10
66708;DHT22;53622;0.000;0.000;2022-09-03T13:21:05;23.20;94.10
66708;DHT22;53622;0.000;0.000;2022-09-03T13:26:47;23.20;93.90
66708;DHT22;53622;0.000;0.000;2022-09-03T13:29:35;23.20;94.30
66708;DHT22;53622;0.000;0.000;2022-09-03T13:32:14;23.20;94.00
66708;DHT22;53622;0.000;0.000;2022-09-03T13:34:51;23.20;94.10
66708;DHT22;53622;0.000;0.000;2022-09-03T13:37:26;23.20;94.00
66708;DHT22;53622;0.000;0.000;2022-09-03T13:39:58;23.20;94.10
66708;DHT22;53622;0.000;0.000;2022-09-03T13:42:33;23.20;94.20
66708;DHT22;53622;0.000;0.000;2022-09-03T13:45:14;23.20;94.10
66708;DHT22;53622;0.000;0.000;2022-09-03T13:47:51;23.20;94.10
66708;DHT22;53622;0.000;0.000;2022-09-03T13:50:46;23.20;94.20
66708;DHT22;53622;0.000;0.000;2022-09-03T13:53:21;23.20;94.20
66708;DHT22;53622;0.000;0.000;2022-09-03T13:55:55;23.20;94.30
66708;DHT22;53622;0.000;0.000;2022-09-03T13:58:36;23.20;94.20
66708;DHT22;53622;0.000;0.000;2022-09-03T14:01:16;23.20;94.20
66708;DHT22;53622;0.000;0.000;2022-09-03T14:03:53;23.20;94.10
66708;DHT22;53622;0.000;0.000;2022-09-03T14:06:35;23.20;94.10
66708;DHT22;53622;0.000;0.000;2022-09-03T14:09:13;23.20;94.10
66708;DHT22;53622;0.000;0.000;2022-09-03T14:11:52;23.20;94.10
66708;DHT22;53622;0.000;0.000;2022-09-03T14:14:34;23.20;94.00
66708;DHT22;53622;0.000;0.000;2022-09-03T14:17:14;23.20;94.00
66708;DHT22;53622;0.000;0.000;2022-09-03T14:19:48;23.20;94.00
66708;DHT22;53622;0.000;0.000;2022-09-03T14:22:23;23.20;94.10
66708;DHT22;53622;0.000;0.000;2022-09-03T14:24:57;23.20;94.30
66708;DHT22;53622;0.000;0.000;2022-09-03T14:27:30;23.20;94.40
66708;DHT22;53622;0.000;0.000;2022-09-03T14:30:00;23.20;94.40
66708;DHT22;53622;0.000;0.000;2022-09-03T14:32:39;23.20;94.40
66708;DHT22;53622;0.000;0.000;2022-09-03T14:35:20;23.30;94.40
66708;DHT22;53622;0.000;0.000;2022-09-03T14:38:18;23.30;94.40
66708;DHT22;53622;0.000;0.000;2022-09-03T14:41:04;23.30;94.30
66708;DHT22;53622;0.000;0.000;2022-09-03T14:44:01;23.30;94.30
66708;DHT22;53622;0.000;0.000;2022-09-03T14:46:46;23.30;94.30
66708;DHT22;53622;0.000;0.000;2022-09-03T14:49:41;23.30;94.40
66708;DHT22;53622;0.000;0.000;2022-09-03T14:52:29;23.30;94.40
66708;DHT22;53622;0.000;0.000;2022-09-03T14:55:24;23.30;94.40
66708;DHT22;53622;0.000;0.000;2022-09-03T14:58:14;23.30;94.30
66708;DHT22;53622;0.000;0.000;2022-09-03T15:01:01;23.30;94.40
66708;DHT22;53622;0.000;0.000;2022-09-03T15:03:53;23.30;94.80
66708;DHT22;53622;0.000;0.000;2022-09-03T15:06:40;23.40;95.50
66708;DHT22;53622;0.000;0.000;2022-09-03T15:09:26;23.40;95.90
66708;DHT22;53622;0.000;0.000;2022-09-03T15:12:03;23.40;96.10
66708;DHT22;53622;0.000;0.000;2022-09-03T15:14:38;23.50;96.20
66708;DHT22;53622;0.000;0.000;2022-09-03T15:17:36;23.50;96.40
66708;DHT22;53622;0.000;0.000;2022-09-03T15:20:19;23.50;94.90
66708;DHT22;53622;0.000;0.000;2022-09-03T15:23:26;23.50;94.30
66708;DHT22;53622;0.000;0.000;2022-09-03T15:29:34;23.50;94.50
66708;DHT22;53622;0.000;0.000;2022-09-03T15:32:11;23.50;94.60
66708;DHT22;53622;0.000;0.000;2022-09-03T15:34:59;23.50;94.40
66708;DHT22;53622;0.000;0.000;2022-09-03T15:37:37;23.50;93.70
66708;DHT22;53622;0.000;0.000;2022-09-03T15:40:18;23.50;94.00
66708;DHT22;53622;0.000;0.000;2022-09-03T15:42:57;23.50;94.00
66708;DHT22;53622;0.000;0.000;2022-09-03T15:45:35;23.50;94.00
66708;DHT22;53622;0.000;0.000;2022-09-03T15:48:20;23.50;94.00
66708;DHT22;53622;0.000;0.000;2022-09-03T15:51:07;23.50;94.00
66708;DHT22;53622;0.000;0.000;2022-09-03T15:53:53;23.40;94.00
66708;DHT22;53622;0.000;0.000;2022-09-03T15:56:38;23.40;94.00
66708;DHT22;53622;0.000;0.000;2022-09-03T15:59:22;23.40;94.00
66708;DHT22;53622;0.000;0.000;2022-09-03T16:02:06;23.40;94.10
66708;DHT22;53622;0.000;0.000;2022-09-03T16:05:00;23.40;94.10
66708;DHT22;53622;0.000;0.000;2022-09-03T16:08:01;23.40;94.10
66708;DHT22;53622;0.000;0.000;2022-09-03T16:10:41;23.50;94.00
66708;DHT22;53622;0.000;0.000;2022-09-03T16:13:31;23.40;94.10
66708;DHT22;53622;0.000;0.000;2022-09-03T16:16:05;23.40;94.00
66708;DHT22;53622;0.000;0.000;2022-09-03T16:18:42;23.40;94.10
66708;DHT22;53622;0.000;0.000;2022-09-03T16:21:28;23.40;94.10
66708;DHT22;53622;0.000;0.000;2022-09-03T16:24:08;23.40;94.10
66708;DHT22;53622;0.000;0.000;2022-09-03T16:26:48;23.40;94.10
66708;DHT22;53622;0.000;0.000;2022-09-03T16:29:38;23.40;94.10
66708;DHT22;53622;0.000;0.000;2022-09-03T16:32:16;23.50;94.10
66708;DHT22;53622;0.000;0.000;2022-09-03T16:35:04;23.40;94.20
66708;DHT22;53622;0.000;0.000;2022-09-03T16:37:47;23.40;94.20
66708;DHT22;53622;0.000;0.000;2022-09-03T16:40:27;23.40;94.30
66708;DHT22;53622;0.000;0.000;2022-09-03T16:43:07;23.50;94.20
66708;DHT22;53622;0.000;0.000;2022-09-03T16:46:23;23.40;94.30
66708;DHT22;53622;0.000;0.000;2022-09-03T16:49:07;23.50;94.20
66708;DHT22;53622;0.000;0.000;2022-09-03T16:51:42;23.40;94.20
66708;DHT22;53622;0.000;0.000;2022-09-03T16:54:23;23.50;94.20
66708;DHT22;53622;0.000;0.000;2022-09-03T16:57:05;23.50;94.20
66708;DHT22;53622;0.000;0.000;2022-09-03T16:59:57;23.50;94.20